Black Canyon City, Arizona
Current Conditions -  °F | °C
As of 3:53 AM on Saturday 25 Oct 2014 (Local Time) from KDVT Reporting Station
Clear Clear  
Wind Chill: 72°   Ceiling: Unl
Heat Index: 72°   Visibility: 10mi
Dew Point: 45°   Wind: 7mph
Humidity: 38%   Direction: 60°ENE
Pressure: 29.99"   Gusts: NA
Location:  34.06°N, 112.11°W
Report Text: KDVT 251053Z 06006KT 10SM CLR 22/07 A2999 RMK AO2 SLP134 T02220072
Loading
Personal Weather Stations






























Interactive Weather Map
Tropical Storm Tracking
New forecast layout! Learn more

10-Day Weather Forecast

Advertisements
Track Severe Weather on mobile